Terminal Aerodrome Forecast
Issued by NWS

Home | Current Version | Previous Version | Text Only | Print | Product List | Glossary On
Versions: 1 2 3 4 5 6 7 8 9 10 11 12 13 14 15 16 17 18 19 20 21 22 23 24 25 26 27 28 29 30 31 32 33 34 35 36
000
FTUS42 KKEY 212300
TAFMTH
TAF
KMTH 212324Z 2200/2224 05014G20KT P6SM VCSH SCT008 BKN025 OVC060
     FM220300 06015G26KT P6SM SCT014 BKN030
     FM221200 07012G20KT P6SM SCT020 SCT080=

USA.gov is the U.S. government's official web portal to all federal, state and local government web resources and services.